WXM80 ListenWXM80 Stop

You find our weather info also at:

UK Metoffice

WeatherCloud

Weather Underground

Northeastern Weather Network

AWEKAS

Citizen Weather Observer Program (CWOP)

HAMweather, WeatherForYou, PWS Weather


Weather Underground History page Text

Daily Summary for February 2, 2018 Units:  English    Metric   Both
« Previous Day
Next Day »
Daily Weekly Monthly Yearly Custom
  High: Low: Average:
Temperature: TemperatureF °F 16.5 °F 27.7 °F
Dew Point: DewpointF °F 3.3 °F 18.5 °F
Humidity: Humidity % 49 % 69 %
Wind Speed: WindSpeedMPH mph 0.0 mph 6.9 mph
Wind Gust: WindSpeedGustMPH mph - -
Wind:- - WNW
Pressure: PressureIn in 29.53 in -
Precipitation: 0.08 in    
Historical Graphs
 
 
Tabular Data for February 2, 2018
Time Temperature Dew Point Pressure Wind Wind Speed Wind Gust Humidity Rainfall Rate (Hourly)
TemperatureF °F DewpointF °F PressureIn in Calm     Humidity % HourlyPrecipIn in
00:00 37.3 °F 35.2 °F 29.59 in Calm     92 % 0.00 in
00:05 37.2 °F 35.4 °F 29.58 in Calm     93 % 0.00 in
00:10 37.1 °F 35.0 °F 29.58 in Calm     92 % 0.00 in
00:15 37.0 °F 34.9 °F 29.57 in Calm     92 % 0.00 in
00:20 37.0 °F 35.2 °F 29.57 in Calm     93 % 0.00 in
00:25 36.9 °F 35.1 °F 29.57 in Calm     93 % 0.00 in
00:30 36.8 °F 35.0 °F 29.56 in Calm     93 % 0.00 in
00:36 36.7 °F 34.9 °F 29.56 in Calm     93 % 0.00 in
00:41 36.7 °F 34.9 °F 29.55 in Calm     93 % 0.00 in
00:46 36.6 °F 34.8 °F 29.55 in Calm     93 % 0.00 in
00:51 36.5 °F 34.7 °F 29.55 in Calm     93 % 0.00 in
00:56 36.5 °F 34.7 °F 29.55 in Calm     93 % 0.00 in
01:01 36.5 °F 34.7 °F 29.55 in Calm     93 % 0.00 in
01:06 36.4 °F 34.6 °F 29.55 in Calm     93 % 0.00 in
01:11 36.4 °F 34.6 °F 29.54 in Calm     93 % 0.00 in
01:16 36.4 °F 34.6 °F 29.54 in Calm     93 % 0.00 in
01:18 36.4 °F 34.6 °F 29.53 in Calm     93 % 0.00 in
01:23 36.5 °F 34.7 °F 29.53 in Calm     93 % 0.00 in
01:28 36.6 °F 34.8 °F 29.54 in Calm     93 % 0.00 in
01:33 36.6 °F 35.0 °F 29.53 in Calm     94 % 0.00 in
01:38 36.6 °F 35.0 °F 29.54 in NW 2.6 mph 3.0 mph 94 % 0.00 in
01:43 36.6 °F 35.0 °F 29.54 in WNW 0.3 mph 2.3 mph 94 % 0.00 in
01:48 36.6 °F 35.0 °F 29.54 in Calm     94 % 0.01 in
01:53 36.6 °F 35.0 °F 29.54 in WNW 0.2 mph 2.3 mph 94 % 0.01 in
01:58 36.6 °F 35.0 °F 29.54 in WNW 0.3 mph 3.5 mph 94 % 0.02 in
02:03 36.5 °F 34.9 °F 29.54 in Calm   2.3 mph 94 % 0.02 in
02:08 36.5 °F 34.9 °F 29.54 in West 1.3 mph 4.0 mph 94 % 0.02 in
02:14 36.4 °F 34.8 °F 29.54 in West 1.0 mph 1.2 mph 94 % 0.03 in
02:19 36.4 °F 34.8 °F 29.55 in WSW 1.3 mph 3.5 mph 94 % 0.03 in
02:24 36.4 °F 34.8 °F 29.55 in West 2.7 mph 5.8 mph 94 % 0.03 in
02:29 36.5 °F 34.9 °F 29.55 in WSW 3.2 mph 8.1 mph 94 % 0.04 in
02:34 36.5 °F 34.9 °F 29.55 in West 4.1 mph 6.9 mph 94 % 0.04 in
02:39 36.4 °F 34.8 °F 29.55 in WNW 2.4 mph 3.5 mph 94 % 0.04 in
02:44 36.4 °F 34.8 °F 29.55 in WSW 3.9 mph 7.0 mph 94 % 0.04 in
02:49 36.4 °F 34.8 °F 29.55 in West 2.8 mph 4.6 mph 94 % 0.04 in
02:54 36.3 °F 35.0 °F 29.55 in WSW 3.9 mph 5.8 mph 95 % 0.04 in
02:59 36.3 °F 35.0 °F 29.54 in WSW 1.0 mph 4.0 mph 95 % 0.04 in
03:04 36.2 °F 34.9 °F 29.54 in SW 1.8 mph 3.5 mph 95 % 0.04 in
03:09 36.2 °F 34.9 °F 29.54 in WSW 2.8 mph 5.8 mph 95 % 0.05 in
03:14 36.3 °F 35.0 °F 29.54 in West 2.7 mph 3.5 mph 95 % 0.04 in
03:19 36.2 °F 34.9 °F 29.54 in WSW 2.2 mph 3.5 mph 95 % 0.04 in
03:24 36.3 °F 35.0 °F 29.54 in WSW 2.8 mph 6.9 mph 95 % 0.04 in
03:29 36.3 °F 35.0 °F 29.53 in WSW 0.3 mph 3.5 mph 95 % 0.03 in
03:34 36.3 °F 35.0 °F 29.54 in WSW 3.3 mph 6.9 mph 95 % 0.03 in
03:39 36.3 °F 35.0 °F 29.54 in WSW 5.1 mph 9.2 mph 95 % 0.04 in
03:44 36.4 °F 35.1 °F 29.54 in WSW 5.7 mph 8.0 mph 95 % 0.04 in
03:49 36.3 °F 35.0 °F 29.53 in West 3.6 mph 5.8 mph 95 % 0.03 in
03:54 36.3 °F 35.0 °F 29.53 in West 2.0 mph 3.5 mph 95 % 0.03 in
03:59 36.3 °F 35.0 °F 29.54 in WSW 0.2 mph 3.5 mph 95 % 0.02 in
04:05 36.3 °F 35.0 °F 29.55 in SW 1.9 mph 7.0 mph 95 % 0.02 in
04:10 36.3 °F 35.0 °F 29.55 in West 2.7 mph 10.4 mph 95 % 0.01 in
04:15 36.3 °F 35.0 °F 29.55 in West 3.3 mph 5.0 mph 95 % 0.01 in
04:20 36.3 °F 35.0 °F 29.55 in West 2.8 mph 6.9 mph 95 % 0.01 in
04:25 36.3 °F 35.0 °F 29.55 in NW 4.6 mph 6.9 mph 95 % 0.01 in
04:30 36.2 °F 34.9 °F 29.56 in WNW 3.3 mph 5.8 mph 95 % 0.01 in
04:35 36.2 °F 34.9 °F 29.56 in NW 4.1 mph 6.9 mph 95 % 0.01 in
04:40 36.1 °F 34.8 °F 29.57 in WNW 3.5 mph 5.8 mph 95 % 0.00 in
04:45 36.1 °F 34.8 °F 29.57 in WNW 5.6 mph 8.1 mph 95 % 0.00 in
04:50 35.9 °F 34.6 °F 29.57 in NNW 8.4 mph 17.3 mph 95 % 0.00 in
04:55 35.3 °F 34.0 °F 29.58 in NNW 6.1 mph 9.2 mph 95 % 0.00 in
05:00 34.9 °F 33.3 °F 29.58 in NNE 5.7 mph 11.5 mph 94 % 0.00 in
05:05 34.4 °F 32.9 °F 29.57 in North 9.9 mph 13.8 mph 94 % 0.00 in
05:10 34.1 °F 32.6 °F 29.59 in ENE 6.7 mph 11.5 mph 94 % 0.00 in
05:15 33.9 °F 32.4 °F 29.60 in North 5.8 mph 12.7 mph 94 % 0.00 in
05:20 33.7 °F 32.2 °F 29.61 in North 5.9 mph 11.5 mph 94 % 0.00 in
05:25 33.6 °F 32.1 °F 29.60 in North 3.9 mph 8.0 mph 94 % 0.00 in
05:30 33.5 °F 32.2 °F 29.60 in North 4.9 mph 6.0 mph 95 % 0.00 in
05:35 33.3 °F 31.8 °F 29.60 in NNW 8.0 mph 12.0 mph 94 % 0.00 in
05:40 33.1 °F 31.6 °F 29.61 in NNW 5.0 mph 13.0 mph 94 % 0.00 in
05:45 32.8 °F 31.3 °F 29.62 in NNW 7.0 mph 14.0 mph 94 % 0.00 in
05:50 32.6 °F 30.8 °F 29.61 in NW 5.0 mph 14.0 mph 93 % 0.00 in
05:55 32.5 °F 30.7 °F 29.61 in North 7.0 mph 13.0 mph 93 % 0.00 in
06:00 32.3 °F 30.5 °F 29.62 in North 5.7 mph 15.0 mph 93 % 0.00 in
06:05 32.1 °F 30.3 °F 29.64 in NNW 5.6 mph 9.2 mph 93 % 0.00 in
06:10 31.8 °F 29.7 °F 29.64 in NW 5.0 mph 11.0 mph 92 % 0.00 in
06:15 31.6 °F 29.5 °F 29.64 in North 9.2 mph 12.0 mph 92 % 0.00 in
06:20 31.3 °F 29.2 °F 29.64 in NNE 11.0 mph 17.0 mph 92 % 0.00 in
06:25 31.0 °F 28.7 °F 29.63 in North 8.9 mph 11.5 mph 91 % 0.00 in
06:30 30.8 °F 28.5 °F 29.63 in North 6.0 mph 20.0 mph 91 % 0.00 in
06:35 30.7 °F 28.1 °F 29.64 in North 7.0 mph 15.0 mph 90 % 0.00 in
06:40 30.5 °F 27.9 °F 29.65 in North 6.0 mph 12.0 mph 90 % 0.00 in
06:46 30.4 °F 27.8 °F 29.64 in North 6.0 mph 15.0 mph 90 % 0.00 in
06:50 30.3 °F 27.7 °F 29.64 in North 3.0 mph 10.0 mph 90 % 0.00 in
06:55 30.3 °F 27.7 °F 29.65 in North 5.0 mph 10.0 mph 90 % 0.00 in
07:01 30.2 °F 27.6 °F 29.65 in NW 7.2 mph 13.0 mph 90 % 0.00 in
07:06 30.1 °F 27.3 °F 29.65 in NNW 6.2 mph 11.5 mph 89 % 0.00 in
07:11 29.9 °F 26.8 °F 29.66 in WNW 6.3 mph 15.0 mph 88 % 0.00 in
07:16 29.7 °F 26.3 °F 29.67 in NW 4.5 mph 8.1 mph 87 % 0.00 in
07:21 29.7 °F 26.3 °F 29.67 in NNW 3.1 mph 6.9 mph 87 % 0.00 in
07:26 29.7 °F 26.6 °F 29.67 in NNE 7.6 mph 11.5 mph 88 % 0.00 in
07:31 29.6 °F 26.2 °F 29.67 in NNW 2.6 mph 8.1 mph 87 % 0.00 in
07:36 29.6 °F 26.2 °F 29.67 in North 5.2 mph 11.5 mph 87 % 0.00 in
07:41 29.5 °F 26.1 °F 29.69 in NW 6.8 mph 11.5 mph 87 % 0.00 in
07:46 29.4 °F 26.0 °F 29.70 in NW 7.0 mph 9.2 mph 87 % 0.00 in
07:51 29.4 °F 25.7 °F 29.70 in NNW 6.3 mph 11.5 mph 86 % 0.00 in
07:56 29.3 °F 25.6 °F 29.70 in NNW 5.8 mph 9.2 mph 86 % 0.00 in
08:01 29.2 °F 25.3 °F 29.68 in NW 4.6 mph 12.7 mph 85 % 0.00 in
08:06 29.2 °F 25.3 °F 29.71 in NNW 5.1 mph 7.0 mph 85 % 0.00 in
08:11 29.1 °F 25.2 °F 29.72 in NNW 6.9 mph 11.5 mph 85 % 0.00 in
08:16 29.1 °F 25.2 °F 29.70 in NW 3.6 mph 9.0 mph 85 % 0.00 in
08:21 29.0 °F 25.1 °F 29.70 in North 3.2 mph 10.4 mph 85 % 0.00 in
08:26 29.0 °F 25.3 °F 29.70 in NNW 4.5 mph 4.6 mph 86 % 0.00 in
08:31 29.0 °F 25.1 °F 29.70 in NNW 6.0 mph 10.4 mph 85 % 0.00 in
08:37 29.1 °F 25.2 °F 29.73 in North 7.5 mph 11.5 mph 85 % 0.00 in
08:42 29.0 °F 23.6 °F 29.71 in WNW 11.0 mph 23.0 mph 80 % 0.00 in
08:47 28.9 °F 22.6 °F 29.71 in WNW 7.1 mph 18.0 mph 77 % 0.00 in
08:52 28.9 °F 22.3 °F 29.72 in NW 8.0 mph 15.0 mph 76 % 0.00 in
08:57 28.8 °F 21.6 °F 29.72 in West 7.1 mph 18.4 mph 74 % 0.00 in
09:02 28.7 °F 21.1 °F 29.73 in NW 5.7 mph 10.4 mph 73 % 0.00 in
09:07 28.8 °F 21.9 °F 29.71 in NW 8.4 mph 12.7 mph 75 % 0.00 in
09:12 28.9 °F 21.7 °F 29.72 in NNW 8.8 mph 16.1 mph 74 % 0.00 in
09:17 29.0 °F 21.7 °F 29.73 in WNW 9.8 mph 19.6 mph 74 % 0.00 in
09:22 29.2 °F 21.6 °F 29.73 in NNW 4.9 mph 10.4 mph 73 % 0.00 in
09:27 29.4 °F 21.5 °F 29.74 in NW 8.7 mph 11.5 mph 72 % 0.00 in
09:32 29.5 °F 20.2 °F 29.73 in WSW 7.9 mph 15.0 mph 68 % 0.00 in
09:37 29.6 °F 18.9 °F 29.73 in NW 7.7 mph 13.8 mph 64 % 0.00 in
09:42 29.5 °F 17.7 °F 29.74 in West 9.4 mph 18.4 mph 61 % 0.00 in
09:47 29.5 °F 17.3 °F 29.74 in NW 10.2 mph 18.4 mph 60 % 0.00 in
09:52 29.4 °F 17.2 °F 29.74 in West 7.8 mph 17.3 mph 60 % 0.00 in
09:58 29.6 °F 17.8 °F 29.74 in WNW 10.4 mph 19.6 mph 61 % 0.00 in
10:03 29.6 °F 17.4 °F 29.75 in WNW 11.9 mph 19.6 mph 60 % 0.00 in
10:08 29.6 °F 18.2 °F 29.75 in NW 9.0 mph 19.6 mph 62 % 0.00 in
10:13 29.6 °F 17.4 °F 29.75 in WNW 11.0 mph 17.3 mph 60 % 0.00 in
10:18 29.7 °F 17.5 °F 29.75 in West 10.0 mph 19.6 mph 60 % 0.00 in
10:23 29.8 °F 18.4 °F 29.75 in NW 8.2 mph 16.0 mph 62 % 0.00 in
10:28 29.8 °F 17.6 °F 29.75 in WSW 9.5 mph 20.7 mph 60 % 0.00 in
10:33 29.9 °F 17.7 °F 29.75 in West 8.5 mph 15.0 mph 60 % 0.00 in
10:38 30.1 °F 17.9 °F 29.76 in WNW 7.5 mph 13.8 mph 60 % 0.00 in
10:43 30.2 °F 18.0 °F 29.76 in West 7.3 mph 13.0 mph 60 % 0.00 in
10:48 30.2 °F 17.6 °F 29.76 in West 11.3 mph 17.0 mph 59 % 0.00 in
10:53 30.1 °F 17.5 °F 29.76 in NW 6.6 mph 12.7 mph 59 % 0.00 in
10:58 30.0 °F 17.8 °F 29.75 in West 7.3 mph 13.8 mph 60 % 0.00 in
11:03 29.9 °F 17.3 °F 29.76 in WNW 6.8 mph 11.5 mph 59 % 0.00 in
11:08 29.9 °F 17.3 °F 29.75 in NW 6.5 mph 11.0 mph 59 % 0.00 in
11:13 30.0 °F 17.4 °F 29.75 in WNW 9.2 mph 17.3 mph 59 % 0.00 in
11:18 30.0 °F 17.4 °F 29.76 in WNW 5.7 mph 11.5 mph 59 % 0.00 in
11:23 29.7 °F 17.1 °F 29.76 in NW 7.9 mph 12.7 mph 59 % 0.00 in
11:29 29.6 °F 17.0 °F 29.76 in NW 9.6 mph 13.8 mph 59 % 0.00 in
11:34 29.3 °F 16.7 °F 29.76 in West 10.8 mph 18.0 mph 59 % 0.00 in
11:39 29.1 °F 17.3 °F 29.75 in NW 8.2 mph 16.1 mph 61 % 0.00 in
11:44 28.9 °F 17.1 °F 29.76 in WNW 5.7 mph 10.4 mph 61 % 0.00 in
11:49 28.8 °F 17.0 °F 29.76 in NW 5.1 mph 12.7 mph 61 % 0.00 in
11:54 28.7 °F 16.9 °F 29.76 in NW 6.1 mph 11.5 mph 61 % 0.00 in
11:59 28.7 °F 17.7 °F 29.75 in NW 7.2 mph 16.1 mph 63 % 0.00 in
12:04 28.5 °F 16.4 °F 29.76 in NW 6.2 mph 10.4 mph 60 % 0.00 in
12:09 28.5 °F 17.1 °F 29.76 in WNW 6.6 mph 13.8 mph 62 % 0.00 in
12:14 28.7 °F 16.6 °F 29.75 in WSW 6.4 mph 19.0 mph 60 % 0.00 in
12:19 28.8 °F 16.3 °F 29.75 in WNW 11.9 mph 17.3 mph 59 % 0.00 in
12:24 28.9 °F 16.0 °F 29.75 in NW 11.2 mph 16.1 mph 58 % 0.00 in
12:29 28.7 °F 15.4 °F 29.76 in West 4.8 mph 15.0 mph 57 % 0.00 in
12:34 28.5 °F 14.8 °F 29.76 in NW 8.2 mph 16.1 mph 56 % 0.00 in
12:39 28.4 °F 15.1 °F 29.75 in West 10.1 mph 15.0 mph 57 % 0.00 in
12:44 28.6 °F 16.1 °F 29.75 in WNW 4.6 mph 20.0 mph 59 % 0.00 in
12:49 28.7 °F 15.4 °F 29.76 in WSW 8.8 mph 13.8 mph 57 % 0.00 in
12:54 28.7 °F 15.4 °F 29.76 in NW 8.9 mph 17.3 mph 57 % 0.00 in
13:00 28.7 °F 15.0 °F 29.76 in WSW 11.7 mph 17.3 mph 56 % 0.00 in
13:05 28.4 °F 13.9 °F 29.76 in WNW 12.2 mph 18.0 mph 54 % 0.00 in
13:10 28.0 °F 14.3 °F 29.76 in NNW 9.6 mph 15.0 mph 56 % 0.00 in
13:15 27.6 °F 13.9 °F 29.76 in NW 6.9 mph 19.6 mph 56 % 0.00 in
13:20 27.4 °F 14.1 °F 29.77 in NW 9.2 mph 18.4 mph 57 % 0.00 in
13:25 27.1 °F 14.3 °F 29.77 in WNW 7.0 mph 18.4 mph 58 % 0.00 in
13:30 26.9 °F 14.1 °F 29.77 in WNW 8.5 mph 13.8 mph 58 % 0.00 in
13:35 26.7 °F 13.5 °F 29.77 in WNW 7.6 mph 13.8 mph 57 % 0.00 in
13:40 26.7 °F 13.9 °F 29.77 in West 7.8 mph 11.5 mph 58 % 0.00 in
13:45 26.6 °F 13.8 °F 29.77 in WNW 11.0 mph 19.6 mph 58 % 0.00 in
13:50 26.7 °F 14.7 °F 29.77 in North 5.6 mph 8.1 mph 60 % 0.00 in
13:55 27.1 °F 14.7 °F 29.77 in WNW 6.8 mph 11.0 mph 59 % 0.00 in
14:00 27.3 °F 14.5 °F 29.78 in NW 10.6 mph 17.3 mph 58 % 0.00 in
14:05 27.4 °F 14.1 °F 29.77 in NW 5.2 mph 16.1 mph 57 % 0.00 in
14:10 27.3 °F 13.7 °F 29.78 in WNW 7.6 mph 16.1 mph 56 % 0.00 in
14:15 27.3 °F 13.2 °F 29.78 in NW 9.1 mph 16.1 mph 55 % 0.00 in
14:21 27.4 °F 13.7 °F 29.78 in WNW 9.0 mph 15.0 mph 56 % 0.00 in
14:26 27.3 °F 12.8 °F 29.78 in WNW 10.0 mph 20.0 mph 54 % 0.00 in
14:31 27.3 °F 13.2 °F 29.78 in NW 8.0 mph 21.0 mph 55 % 0.00 in
14:36 27.3 °F 13.2 °F 29.78 in WNW 6.0 mph 21.0 mph 55 % 0.00 in
14:41 27.4 °F 13.3 °F 29.78 in WNW 8.0 mph 16.0 mph 55 % 0.00 in
14:46 27.4 °F 13.3 °F 29.79 in North 8.1 mph 15.0 mph 55 % 0.00 in
14:51 27.4 °F 13.3 °F 29.79 in WNW 8.0 mph 17.0 mph 55 % 0.00 in
14:56 27.3 °F 13.7 °F 29.79 in NW 8.0 mph 18.0 mph 56 % 0.00 in
15:01 27.2 °F 13.6 °F 29.80 in West 7.3 mph 12.7 mph 56 % 0.00 in
15:06 27.2 °F 14.4 °F 29.80 in NW 5.0 mph 17.0 mph 58 % 0.00 in
15:11 27.2 °F 13.6 °F 29.80 in NW 9.0 mph 20.0 mph 56 % 0.00 in
15:16 27.2 °F 13.6 °F 29.80 in WNW 8.0 mph 18.0 mph 56 % 0.00 in
15:21 27.1 °F 12.6 °F 29.81 in WNW 7.0 mph 18.0 mph 54 % 0.00 in
15:26 27.0 °F 13.0 °F 29.81 in WNW 10.0 mph 25.0 mph 55 % 0.00 in
15:31 26.9 °F 12.0 °F 29.81 in NNW 9.3 mph 14.0 mph 53 % 0.00 in
15:36 26.8 °F 11.5 °F 29.82 in WNW 8.1 mph 15.0 mph 52 % 0.00 in
15:41 26.7 °F 11.4 °F 29.82 in West 8.4 mph 13.8 mph 52 % 0.00 in
15:46 26.6 °F 11.7 °F 29.83 in WNW 10.7 mph 19.6 mph 53 % 0.00 in
15:51 26.5 °F 10.8 °F 29.83 in WNW 8.9 mph 13.8 mph 51 % 0.00 in
15:56 26.5 °F 11.2 °F 29.83 in West 5.6 mph 15.0 mph 52 % 0.00 in
16:01 26.5 °F 11.2 °F 29.83 in NW 10.4 mph 18.4 mph 52 % 0.00 in
16:06 26.5 °F 12.1 °F 29.83 in West 14.5 mph 26.5 mph 54 % 0.00 in
16:12 26.3 °F 10.2 °F 29.83 in NW 13.3 mph 25.3 mph 50 % 0.00 in
16:17 26.0 °F 10.8 °F 29.84 in North 14.0 mph 27.6 mph 52 % 0.00 in
16:22 25.7 °F 10.0 °F 29.84 in NW 13.0 mph 23.0 mph 51 % 0.00 in
16:27 25.5 °F 9.4 °F 29.84 in West 12.1 mph 26.5 mph 50 % 0.00 in
16:32 25.2 °F 9.1 °F 29.84 in West 6.7 mph 16.1 mph 50 % 0.00 in
16:37 25.1 °F 9.9 °F 29.85 in WNW 12.0 mph 21.9 mph 52 % 0.00 in
16:42 24.9 °F 10.2 °F 29.85 in West 9.8 mph 18.4 mph 53 % 0.00 in
16:47 24.9 °F 11.0 °F 29.86 in NW 7.8 mph 19.0 mph 55 % 0.00 in
16:52 24.7 °F 10.4 °F 29.86 in WNW 8.6 mph 12.7 mph 54 % 0.00 in
16:57 24.6 °F 10.3 °F 29.86 in West 4.9 mph 11.5 mph 54 % 0.00 in
17:02 24.5 °F 10.2 °F 29.87 in North 9.4 mph 20.7 mph 54 % 0.00 in
17:07 24.5 °F 10.6 °F 29.87 in NW 9.2 mph 19.6 mph 55 % 0.00 in
17:12 24.3 °F 10.8 °F 29.88 in WNW 9.7 mph 20.7 mph 56 % 0.00 in
17:17 24.2 °F 10.3 °F 29.88 in WNW 13.4 mph 19.6 mph 55 % 0.00 in
17:22 24.1 °F 9.8 °F 29.89 in WNW 14.0 mph 19.6 mph 54 % 0.00 in
17:27 23.8 °F 9.1 °F 29.89 in NW 8.4 mph 16.1 mph 53 % 0.00 in
17:32 23.5 °F 8.9 °F 29.90 in NW 7.8 mph 16.1 mph 53 % 0.00 in
17:37 23.4 °F 8.3 °F 29.90 in NW 5.9 mph 24.2 mph 52 % 0.00 in
17:42 23.1 °F 8.1 °F 29.91 in NW 10.3 mph 19.6 mph 52 % 0.00 in
17:48 23.0 °F 8.0 °F 29.91 in WNW 12.0 mph 16.0 mph 52 % 0.00 in
17:53 22.9 °F 8.7 °F 29.92 in WNW 9.6 mph 17.3 mph 54 % 0.00 in
17:58 22.8 °F 8.6 °F 29.92 in NNW 10.2 mph 18.4 mph 54 % 0.00 in
18:03 22.6 °F 8.0 °F 29.92 in North 14.0 mph 23.0 mph 53 % 0.00 in
18:08 22.6 °F 7.6 °F 29.93 in WNW 10.1 mph 20.7 mph 52 % 0.00 in
18:13 22.4 °F 6.5 °F 29.93 in NW 10.0 mph 20.7 mph 50 % 0.00 in
18:18 22.2 °F 6.4 °F 29.94 in NNW 8.2 mph 17.3 mph 50 % 0.00 in
18:23 22.0 °F 7.0 °F 29.95 in NW 15.0 mph 23.0 mph 52 % 0.00 in
18:28 21.8 °F 6.0 °F 29.95 in North 10.9 mph 24.2 mph 50 % 0.00 in
18:33 21.7 °F 6.3 °F 29.95 in NW 15.3 mph 26.5 mph 51 % 0.00 in
18:38 21.6 °F 7.5 °F 29.96 in NNW 10.3 mph 17.3 mph 54 % 0.00 in
18:43 21.5 °F 6.6 °F 29.97 in WNW 10.5 mph 18.4 mph 52 % 0.00 in
18:48 21.4 °F 5.6 °F 29.97 in NW 10.8 mph 17.3 mph 50 % 0.00 in
18:53 21.3 °F 6.4 °F 29.97 in WNW 9.3 mph 18.4 mph 52 % 0.00 in
18:58 21.1 °F 5.8 °F 29.98 in WNW 8.5 mph 15.0 mph 51 % 0.00 in
19:03 20.9 °F 6.0 °F 29.98 in North 10.2 mph 14.0 mph 52 % 0.00 in
19:09 20.7 °F 4.5 °F 29.99 in NNW 8.6 mph 19.6 mph 49 % 0.00 in
19:14 20.5 °F 5.2 °F 29.99 in WNW 11.4 mph 26.5 mph 51 % 0.00 in
19:19 20.4 °F 5.5 °F 30.00 in NNE 9.0 mph 19.6 mph 52 % 0.00 in
19:24 20.3 °F 5.0 °F 30.00 in WNW 8.3 mph 16.1 mph 51 % 0.00 in
19:29 20.1 °F 4.8 °F 30.00 in NW 8.4 mph 15.0 mph 51 % 0.00 in
19:34 20.0 °F 4.7 °F 30.00 in West 8.7 mph 15.0 mph 51 % 0.00 in
19:39 19.9 °F 4.7 °F 30.00 in NW 9.1 mph 19.6 mph 51 % 0.00 in
19:44 19.8 °F 5.0 °F 30.00 in WNW 10.8 mph 15.0 mph 52 % 0.00 in
19:49 19.8 °F 5.0 °F 30.01 in NW 10.7 mph 18.4 mph 52 % 0.00 in
19:54 19.7 °F 4.9 °F 30.01 in NW 4.8 mph 17.3 mph 52 % 0.00 in
19:59 19.6 °F 4.8 °F 30.01 in WNW 10.7 mph 21.9 mph 52 % 0.00 in
20:04 19.5 °F 4.7 °F 30.01 in NNW 11.1 mph 18.4 mph 52 % 0.00 in
20:09 19.4 °F 5.0 °F 30.02 in NNW 13.1 mph 23.0 mph 53 % 0.00 in
20:14 19.3 °F 4.5 °F 30.02 in West 8.9 mph 17.3 mph 52 % 0.00 in
20:19 19.2 °F 4.4 °F 30.02 in WNW 8.6 mph 15.0 mph 52 % 0.00 in
20:24 19.1 °F 4.8 °F 30.03 in WNW 7.9 mph 12.7 mph 53 % 0.00 in
20:29 19.1 °F 4.8 °F 30.04 in NW 11.1 mph 17.0 mph 53 % 0.00 in
20:34 19.0 °F 4.2 °F 30.04 in NNW 10.3 mph 17.3 mph 52 % 0.00 in
20:39 18.9 °F 4.6 °F 30.04 in NW 10.8 mph 18.4 mph 53 % 0.00 in
20:45 18.8 °F 4.5 °F 30.04 in NNW 9.4 mph 23.0 mph 53 % 0.00 in
20:50 18.7 °F 4.4 °F 30.05 in NW 7.2 mph 19.6 mph 53 % 0.00 in
20:55 18.6 °F 4.7 °F 30.05 in West 10.8 mph 23.0 mph 54 % 0.00 in
21:00 18.4 °F 4.5 °F 30.06 in NNW 5.9 mph 19.6 mph 54 % 0.00 in
21:05 18.4 °F 4.9 °F 30.06 in WNW 5.9 mph 13.8 mph 55 % 0.00 in
21:10 18.2 °F 3.5 °F 30.06 in WNW 9.5 mph 26.5 mph 52 % 0.00 in
21:15 18.0 °F 3.3 °F 30.06 in NNW 11.5 mph 21.9 mph 52 % 0.00 in
21:20 17.9 °F 3.6 °F 30.06 in West 12.0 mph 26.5 mph 53 % 0.00 in
21:25 17.9 °F 3.6 °F 30.06 in WNW 10.4 mph 24.2 mph 53 % 0.00 in
21:30 17.9 °F 4.0 °F 30.06 in WNW 9.8 mph 21.9 mph 54 % 0.00 in
21:35 17.7 °F 3.8 °F 30.06 in West 5.6 mph 12.7 mph 54 % 0.00 in
21:40 17.7 °F 4.2 °F 30.06 in WNW 10.7 mph 23.0 mph 55 % 0.00 in
21:45 17.5 °F 4.1 °F 30.06 in WNW 8.1 mph 14.0 mph 55 % 0.00 in
21:50 17.4 °F 3.6 °F 30.07 in WNW 10.8 mph 17.3 mph 54 % 0.00 in
21:55 17.3 °F 3.9 °F 30.07 in WSW 7.1 mph 12.7 mph 55 % 0.00 in
22:00 17.2 °F 3.8 °F 30.07 in NW 7.8 mph 12.7 mph 55 % 0.00 in
22:05 17.2 °F 4.2 °F 30.07 in WNW 6.5 mph 11.5 mph 56 % 0.00 in
22:10 17.1 °F 4.5 °F 30.07 in WNW 8.1 mph 15.0 mph 57 % 0.00 in
22:16 17.1 °F 4.5 °F 30.07 in NW 8.3 mph 21.9 mph 57 % 0.00 in
22:21 17.1 °F 3.7 °F 30.07 in WNW 7.0 mph 20.0 mph 55 % 0.00 in
22:26 17.0 °F 3.6 °F 30.07 in WNW 8.0 mph 18.0 mph 55 % 0.00 in
22:31 16.9 °F 3.9 °F 30.07 in West 5.2 mph 13.8 mph 56 % 0.00 in
22:36 16.9 °F 4.3 °F 30.07 in NW 9.0 mph 18.0 mph 57 % 0.00 in
22:41 16.9 °F 4.3 °F 30.07 in WNW 8.0 mph 18.0 mph 57 % 0.00 in
22:46 16.8 °F 4.2 °F 30.07 in West 6.7 mph 12.7 mph 57 % 0.00 in
22:51 16.8 °F 4.6 °F 30.08 in NW 7.0 mph 16.0 mph 58 % 0.00 in
22:56 16.8 °F 3.8 °F 30.08 in WNW 1.0 mph 18.0 mph 56 % 0.00 in
23:01 16.8 °F 4.2 °F 30.08 in WNW 8.0 mph 13.8 mph 57 % 0.00 in
23:06 16.8 °F 4.6 °F 30.08 in NW 7.0 mph 17.0 mph 58 % 0.00 in
23:11 16.7 °F 4.1 °F 30.08 in NW 6.0 mph 17.0 mph 57 % 0.00 in
23:16 16.7 °F 4.5 °F 30.08 in NW 7.0 mph 17.0 mph 58 % 0.00 in
23:21 16.7 °F 4.5 °F 30.09 in NW 6.0 mph 14.0 mph 58 % 0.00 in
23:26 16.6 °F 4.4 °F 30.09 in WNW 9.3 mph 18.0 mph 58 % 0.00 in
23:31 16.6 °F 4.0 °F 30.09 in NW 9.0 mph 18.0 mph 57 % 0.00 in
23:36 16.6 °F 4.0 °F 30.09 in NW 2.0 mph 16.0 mph 57 % 0.00 in
23:41 16.6 °F 4.7 °F 30.09 in WNW 8.0 mph 15.0 mph 59 % 0.00 in
23:46 16.6 °F 4.4 °F 30.09 in WNW 7.0 mph 24.0 mph 58 % 0.00 in
23:51 16.5 °F 4.7 °F 30.09 in WNW 9.0 mph 20.0 mph 59 % 0.00 in
23:56 16.5 °F 4.3 °F 30.10 in WNW 9.0 mph 17.0 mph 58 % 0.00 in
Crab Meadow Weather
Compliments of Weather Underground - 3 mb

Script developed by  Jim McMurry - jmcmurry@mwt.net Adapted for the template by  Wim van der Kuil - Leuven-Template.eu

Weather Terms: Waterspout - In general, a tornado occurring over water. Specifically, it refers to a small, relatively weak rotating column of air over water beneath a towering cumulus or cumulonimbus cloud. They occasionally occur over Lake Michigan in late summer with unusually cold air aloft.